createdAt,value
2018-08-28T00:02:04.504Z,17.20
2018-08-28T00:04:33.751Z,17.20
2018-08-28T00:07:02.961Z,17.20
2018-08-28T00:09:32.209Z,17.20
2018-08-28T00:12:01.532Z,17.10
2018-08-28T00:14:30.900Z,17.20
2018-08-28T00:17:00.172Z,17.10
2018-08-28T00:19:29.369Z,17.10
2018-08-28T00:21:58.774Z,17.10
2018-08-28T00:24:27.981Z,17.00
2018-08-28T00:26:57.253Z,17.00
2018-08-28T00:29:26.569Z,17.00
2018-08-28T00:31:55.874Z,16.90
2018-08-28T00:34:25.212Z,16.90
2018-08-28T00:36:54.460Z,16.90
2018-08-28T00:39:23.838Z,16.90
2018-08-28T00:41:53.168Z,16.90
2018-08-28T00:44:22.571Z,17.00
2018-08-28T00:46:52.001Z,16.90
2018-08-28T00:49:21.393Z,17.00
2018-08-28T00:51:50.765Z,17.00
2018-08-28T00:54:20.040Z,17.00
2018-08-28T00:56:49.306Z,17.10
2018-08-28T00:59:18.506Z,17.10
2018-08-28T01:01:48.321Z,17.10
2018-08-28T01:04:17.441Z,17.10
2018-08-28T01:06:46.697Z,17.10
2018-08-28T01:09:15.947Z,17.20
2018-08-28T01:11:45.235Z,17.20
2018-08-28T01:14:14.498Z,17.20
2018-08-28T01:16:43.717Z,17.20
2018-08-28T01:19:13.930Z,17.20
2018-08-28T01:21:43.193Z,17.20
2018-08-28T01:24:12.497Z,17.20
2018-08-28T01:26:41.910Z,17.20
2018-08-28T01:29:11.114Z,17.20
2018-08-28T01:31:40.342Z,17.20
2018-08-28T01:34:09.702Z,17.20
2018-08-28T01:36:39.117Z,17.20
2018-08-28T01:39:08.722Z,17.30
2018-08-28T01:41:38.037Z,17.30
2018-08-28T01:44:07.406Z,17.30
2018-08-28T01:46:36.812Z,17.30
2018-08-28T01:49:06.266Z,17.40
2018-08-28T01:51:35.516Z,17.40
2018-08-28T01:54:04.777Z,17.50
2018-08-28T01:56:34.124Z,17.50
2018-08-28T01:59:03.494Z,17.50
2018-08-28T02:01:32.785Z,17.60
2018-08-28T02:04:02.098Z,17.70
2018-08-28T02:06:31.403Z,17.70
2018-08-28T02:09:00.846Z,17.70
2018-08-28T02:11:30.133Z,17.80
2018-08-28T02:13:59.349Z,17.80
2018-08-28T02:16:28.462Z,17.90
2018-08-28T02:18:57.797Z,17.90
2018-08-28T02:21:27.052Z,17.90
2018-08-28T02:23:56.411Z,17.90
2018-08-28T02:26:25.690Z,17.90
2018-08-28T02:28:54.863Z,17.80
2018-08-28T02:31:24.172Z,17.90
2018-08-28T02:33:53.492Z,17.90
2018-08-28T02:36:22.642Z,17.90
2018-08-28T02:38:51.813Z,17.90
2018-08-28T02:41:21.121Z,17.90
2018-08-28T02:43:50.290Z,17.90
2018-08-28T02:46:19.524Z,17.90
2018-08-28T02:48:48.797Z,17.90
2018-08-28T02:51:18.743Z,17.90
2018-08-28T02:53:48.045Z,17.90
2018-08-28T02:56:17.401Z,17.90
2018-08-28T02:58:46.724Z,17.90
2018-08-28T03:01:16.031Z,17.90
2018-08-28T03:03:45.330Z,17.90
2018-08-28T03:06:14.610Z,17.90
2018-08-28T03:08:43.954Z,18.00
2018-08-28T03:11:13.451Z,17.90
2018-08-28T03:13:42.749Z,18.00
2018-08-28T03:16:12.034Z,18.00
2018-08-28T03:18:41.336Z,18.00
2018-08-28T03:21:10.675Z,18.00
2018-08-28T03:23:40.368Z,18.00
2018-08-28T03:26:10.279Z,18.00
2018-08-28T03:28:39.640Z,18.00
2018-08-28T03:31:09.049Z,18.10
2018-08-28T03:33:38.331Z,18.10
2018-08-28T03:36:07.578Z,18.10
2018-08-28T03:38:36.894Z,18.10
2018-08-28T03:41:06.016Z,18.10
2018-08-28T03:43:35.447Z,18.10
2018-08-28T03:46:05.592Z,18.10
2018-08-28T03:48:34.874Z,18.10
2018-08-28T03:51:04.148Z,18.10
2018-08-28T03:53:33.491Z,18.20
2018-08-28T03:56:02.667Z,18.20
2018-08-28T03:58:31.844Z,18.20
2018-08-28T04:01:01.297Z,18.20
2018-08-28T04:03:31.291Z,18.10
2018-08-28T04:06:00.338Z,18.10
2018-08-28T04:08:29.624Z,18.10
2018-08-28T04:10:58.793Z,18.10
2018-08-28T04:13:28.056Z,18.10
2018-08-28T04:15:57.355Z,18.10
2018-08-28T04:18:26.477Z,18.10
2018-08-28T04:20:55.696Z,18.00
2018-08-28T04:23:24.976Z,18.00
2018-08-28T04:25:54.395Z,18.00
2018-08-28T04:28:23.683Z,18.00
2018-08-28T04:30:53.001Z,17.90
2018-08-28T04:33:22.303Z,18.00
2018-08-28T04:35:51.606Z,18.00
2018-08-28T04:38:20.937Z,18.00
2018-08-28T04:40:50.332Z,18.00
2018-08-28T04:43:19.550Z,18.00
2018-08-28T04:45:48.867Z,18.00
2018-08-28T04:48:18.234Z,18.10
2018-08-28T04:50:47.483Z,18.10
2018-08-28T04:53:16.927Z,18.20
2018-08-28T04:55:46.172Z,18.20
2018-08-28T04:58:16.022Z,18.20
2018-08-28T05:00:45.382Z,18.30
2018-08-28T05:03:14.733Z,18.40
2018-08-28T05:05:43.917Z,18.40
2018-08-28T05:08:13.095Z,18.40
2018-08-28T05:10:42.339Z,18.50
2018-08-28T05:13:11.488Z,18.50
2018-08-28T05:15:40.697Z,18.60
2018-08-28T05:18:09.827Z,18.60
2018-08-28T05:20:39.129Z,18.70
2018-08-28T05:23:08.392Z,18.70
2018-08-28T05:25:37.666Z,18.80
2018-08-28T05:28:06.959Z,18.80
2018-08-28T05:30:36.491Z,18.80
2018-08-28T05:33:05.769Z,18.90
2018-08-28T05:35:35.023Z,18.90
2018-08-28T05:38:04.374Z,19.00
2018-08-28T05:40:33.682Z,19.00
2018-08-28T05:43:03.001Z,19.00
2018-08-28T05:45:32.287Z,19.00
2018-08-28T05:48:01.601Z,19.10
2018-08-28T05:50:30.925Z,19.10
2018-08-28T05:53:00.155Z,19.20
2018-08-28T05:55:29.476Z,19.20
2018-08-28T05:57:58.764Z,19.20
2018-08-28T06:00:27.996Z,19.30
2018-08-28T06:02:57.295Z,19.30
2018-08-28T06:05:26.522Z,19.30
2018-08-28T06:07:55.870Z,19.50
2018-08-28T06:10:25.062Z,19.60
2018-08-28T06:12:54.260Z,19.80
2018-08-28T06:15:23.938Z,19.90
2018-08-28T06:17:53.190Z,20.00
2018-08-28T06:20:22.471Z,20.10
2018-08-28T06:22:51.871Z,20.20
2018-08-28T06:25:21.133Z,20.30
2018-08-28T06:27:50.614Z,20.50
2018-08-28T06:30:20.002Z,20.60
2018-08-28T06:32:49.378Z,20.70
2018-08-28T06:35:18.565Z,20.90
2018-08-28T06:37:47.767Z,20.90
2018-08-28T06:40:17.112Z,21.10
2018-08-28T06:42:46.480Z,21.20
2018-08-28T06:45:15.800Z,21.30
2018-08-28T06:47:45.110Z,21.40
2018-08-28T06:50:14.313Z,21.50
2018-08-28T06:52:43.610Z,21.60
2018-08-28T06:55:13.007Z,21.60
2018-08-28T06:57:42.350Z,21.70
2018-08-28T07:00:12.594Z,21.80
2018-08-28T07:02:42.028Z,21.90
2018-08-28T07:05:11.316Z,21.90
2018-08-28T07:07:40.593Z,22.00
2018-08-28T07:10:09.881Z,22.10
2018-08-28T07:12:39.141Z,22.20
2018-08-28T07:15:08.356Z,22.30
2018-08-28T07:17:37.632Z,22.40
2018-08-28T07:20:06.959Z,22.50
2018-08-28T07:22:36.180Z,22.60
2018-08-28T07:25:05.501Z,22.70
2018-08-28T07:27:34.877Z,22.80
2018-08-28T07:30:04.315Z,22.90
2018-08-28T07:32:34.539Z,22.90
2018-08-28T07:35:03.818Z,23.00
2018-08-28T07:37:33.175Z,23.10
2018-08-28T07:40:02.454Z,23.20
2018-08-28T07:42:31.566Z,23.40
2018-08-28T07:45:00.810Z,23.50
2018-08-28T07:47:29.996Z,23.50
2018-08-28T07:49:59.980Z,23.70
2018-08-28T07:52:29.314Z,23.80
2018-08-28T07:54:58.366Z,24.10
2018-08-28T07:57:27.478Z,24.30
2018-08-28T07:59:56.683Z,24.40
2018-08-28T08:02:26.119Z,24.60
2018-08-28T08:04:55.355Z,24.60
2018-08-28T08:07:26.168Z,24.60
2018-08-28T08:09:55.509Z,24.70
2018-08-28T08:12:24.760Z,24.80
2018-08-28T08:14:54.280Z,25.00
2018-08-28T08:17:23.622Z,25.30
2018-08-28T08:19:53.023Z,25.80
2018-08-28T08:22:22.258Z,26.20
2018-08-28T08:24:51.581Z,26.80
2018-08-28T08:27:20.923Z,27.50
2018-08-28T08:29:50.174Z,28.00
2018-08-28T08:32:19.408Z,28.70
2018-08-28T08:34:48.677Z,29.30
2018-08-28T08:37:17.925Z,30.10
2018-08-28T08:39:47.206Z,30.70
2018-08-28T08:42:16.377Z,31.20
2018-08-28T08:44:45.697Z,31.40
2018-08-28T08:47:14.993Z,31.60
2018-08-28T08:49:44.118Z,31.50
2018-08-28T08:52:13.384Z,31.60
2018-08-28T08:54:42.729Z,32.00
2018-08-28T08:57:12.019Z,32.10
2018-08-28T08:59:41.191Z,32.20
2018-08-28T09:02:10.503Z,32.30
2018-08-28T09:04:39.830Z,32.60
2018-08-28T09:07:09.043Z,33.00
2018-08-28T09:09:38.347Z,33.10
2018-08-28T09:12:07.596Z,33.50
2018-08-28T09:14:36.793Z,33.40
2018-08-28T09:17:06.136Z,33.60
2018-08-28T09:19:35.340Z,33.60
2018-08-28T09:22:04.481Z,33.60
2018-08-28T09:24:33.742Z,33.40
2018-08-28T09:27:03.043Z,33.60
2018-08-28T09:29:32.301Z,33.90
2018-08-28T09:32:01.571Z,34.10
2018-08-28T09:34:30.755Z,34.40
2018-08-28T09:37:00.052Z,34.80
2018-08-28T09:39:29.317Z,35.20
2018-08-28T09:41:58.496Z,35.20
2018-08-28T09:44:28.282Z,35.20
2018-08-28T09:46:57.688Z,34.90
2018-08-28T09:49:26.984Z,34.70
2018-08-28T09:51:56.256Z,34.30
2018-08-28T09:54:25.522Z,33.80
2018-08-28T09:56:54.778Z,33.60
2018-08-28T09:59:24.173Z,33.70
2018-08-28T10:01:53.347Z,33.30
2018-08-28T10:04:22.721Z,32.90
2018-08-28T10:06:52.045Z,33.00
2018-08-28T10:09:21.275Z,33.40
2018-08-28T10:11:50.559Z,33.10
2018-08-28T10:14:19.788Z,33.10
2018-08-28T10:16:48.958Z,33.50
2018-08-28T10:19:18.314Z,33.70
2018-08-28T10:21:47.595Z,34.10
2018-08-28T10:24:16.786Z,34.50
2018-08-28T10:26:45.986Z,34.80
2018-08-28T10:29:15.154Z,34.80
2018-08-28T10:31:44.428Z,34.70
2018-08-28T10:34:14.221Z,34.80
2018-08-28T10:36:43.387Z,34.50
2018-08-28T10:39:12.588Z,34.30
2018-08-28T10:41:41.827Z,34.10
2018-08-28T10:44:11.019Z,33.90
2018-08-28T10:46:40.406Z,33.40
2018-08-28T10:49:09.477Z,32.40
2018-08-28T10:51:38.690Z,31.80
2018-08-28T10:54:07.749Z,31.90
2018-08-28T10:56:36.993Z,32.10
2018-08-28T10:59:06.268Z,32.60
2018-08-28T11:01:35.397Z,33.20
2018-08-28T11:04:04.607Z,33.80
2018-08-28T11:06:33.769Z,34.10
2018-08-28T11:09:02.987Z,34.00
2018-08-28T11:11:32.077Z,34.10
2018-08-28T11:14:01.375Z,34.40
2018-08-28T11:16:30.637Z,34.40
2018-08-28T11:18:59.839Z,34.60
2018-08-28T11:21:29.049Z,34.70
2018-08-28T11:23:58.401Z,33.90
2018-08-28T11:26:27.586Z,33.10
2018-08-28T11:28:57.263Z,32.70
2018-08-28T11:31:26.536Z,32.40
2018-08-28T11:33:55.859Z,32.20
2018-08-28T11:36:25.106Z,32.50
2018-08-28T11:38:54.131Z,33.00
2018-08-28T11:41:23.354Z,33.30
2018-08-28T11:43:52.625Z,33.60
2018-08-28T11:46:21.984Z,34.20
2018-08-28T11:48:51.349Z,34.80
2018-08-28T11:51:20.633Z,35.40
2018-08-28T11:53:49.828Z,35.90
2018-08-28T11:56:19.029Z,36.20
2018-08-28T11:58:48.185Z,36.30
2018-08-28T12:01:17.450Z,36.80
2018-08-28T12:03:46.673Z,37.30
2018-08-28T12:06:15.886Z,37.80
2018-08-28T12:08:45.065Z,37.80
2018-08-28T12:11:14.238Z,37.00
2018-08-28T12:13:43.574Z,36.80
2018-08-28T12:16:12.830Z,36.60
2018-08-28T12:18:42.107Z,36.40
2018-08-28T12:21:11.554Z,36.40
2018-08-28T12:23:40.710Z,36.20
2018-08-28T12:26:09.908Z,35.90
2018-08-28T12:28:39.242Z,35.40
2018-08-28T12:31:08.365Z,35.00
2018-08-28T12:33:37.381Z,34.80
2018-08-28T12:36:06.847Z,35.10
2018-08-28T12:38:36.052Z,35.30
2018-08-28T12:41:05.259Z,35.50
2018-08-28T12:43:34.615Z,35.30
2018-08-28T12:46:03.874Z,34.90
2018-08-28T12:48:33.050Z,34.70
2018-08-28T12:51:02.255Z,34.50
2018-08-28T12:53:31.516Z,34.40
2018-08-28T12:56:00.766Z,34.10
2018-08-28T12:58:30.053Z,33.80
2018-08-28T13:00:59.808Z,33.50
2018-08-28T13:03:28.964Z,33.40
2018-08-28T13:05:58.161Z,33.20
2018-08-28T13:08:27.366Z,33.00
2018-08-28T13:10:56.793Z,32.70
2018-08-28T13:13:26.138Z,32.60
2018-08-28T13:15:55.402Z,32.50
2018-08-28T13:18:24.762Z,32.40
2018-08-28T13:20:58.022Z,32.40
2018-08-28T13:23:27.307Z,32.40
2018-08-28T13:25:56.602Z,32.40
2018-08-28T13:28:25.842Z,32.50
2018-08-28T13:30:55.462Z,32.50
2018-08-28T13:33:24.719Z,32.40
2018-08-28T13:35:53.994Z,32.20
2018-08-28T13:38:23.258Z,31.80
2018-08-28T13:40:52.631Z,31.10
2018-08-28T13:43:21.966Z,30.50
2018-08-28T13:45:51.159Z,30.30
2018-08-28T13:48:20.506Z,30.30
2018-08-28T13:50:49.799Z,30.40
2018-08-28T13:53:19.147Z,30.60
2018-08-28T13:55:48.452Z,30.70
2018-08-28T13:58:17.629Z,30.70
2018-08-28T14:00:46.816Z,30.90
2018-08-28T14:03:16.000Z,31.00
2018-08-28T14:05:45.210Z,31.00
2018-08-28T14:08:14.482Z,31.00
2018-08-28T14:10:43.786Z,31.20
2018-08-28T14:13:12.969Z,31.20
2018-08-28T14:15:42.221Z,31.20
2018-08-28T14:18:11.463Z,31.20
2018-08-28T14:20:40.810Z,31.20
2018-08-28T14:23:10.074Z,31.20
2018-08-28T14:25:39.434Z,31.10
2018-08-28T14:28:08.598Z,31.00
2018-08-28T14:30:37.794Z,31.00
2018-08-28T14:33:07.056Z,30.90
2018-08-28T14:35:36.493Z,30.70
2018-08-28T14:38:06.005Z,30.70
2018-08-28T14:40:35.278Z,30.70
2018-08-28T14:43:04.543Z,30.60
2018-08-28T14:45:33.926Z,30.50
2018-08-28T14:48:03.118Z,30.40
2018-08-28T14:50:32.589Z,30.30
2018-08-28T14:53:01.725Z,30.20
2018-08-28T14:55:31.005Z,30.10
2018-08-28T14:58:00.332Z,30.10
2018-08-28T15:00:29.715Z,30.10
2018-08-28T15:02:59.091Z,29.90
2018-08-28T15:05:28.379Z,29.80
2018-08-28T15:07:57.650Z,29.70
2018-08-28T15:10:26.961Z,29.50
2018-08-28T15:12:56.226Z,29.50
2018-08-28T15:15:25.453Z,29.40
2018-08-28T15:17:54.834Z,29.40
2018-08-28T15:20:24.063Z,29.30
2018-08-28T15:22:53.242Z,29.20
2018-08-28T15:25:22.557Z,29.10
2018-08-28T15:27:51.810Z,29.00
2018-08-28T15:30:21.115Z,28.90
2018-08-28T15:32:50.391Z,28.80
2018-08-28T15:35:19.636Z,28.70
2018-08-28T15:37:48.870Z,28.60
2018-08-28T15:40:18.233Z,28.50
2018-08-28T15:42:47.433Z,28.40
2018-08-28T15:45:16.487Z,28.40
2018-08-28T15:47:45.770Z,28.20
2018-08-28T15:50:14.959Z,28.10
2018-08-28T15:52:44.140Z,28.00
2018-08-28T15:55:13.518Z,27.80
2018-08-28T15:57:42.837Z,27.80
2018-08-28T16:00:12.070Z,27.70
2018-08-28T16:02:41.465Z,27.50
2018-08-28T16:05:10.698Z,27.50
2018-08-28T16:07:40.042Z,27.40
2018-08-28T16:10:09.379Z,27.30
2018-08-28T16:12:38.574Z,27.30
2018-08-28T16:15:07.875Z,27.20
2018-08-28T16:17:37.143Z,27.20
2018-08-28T16:20:06.607Z,27.10
2018-08-28T16:22:39.309Z,27.00
2018-08-28T16:25:08.550Z,27.00
2018-08-28T16:27:37.787Z,26.90
2018-08-28T16:30:06.935Z,26.90
2018-08-28T16:32:36.118Z,26.90
2018-08-28T16:35:05.421Z,26.80
2018-08-28T16:37:34.570Z,26.80
2018-08-28T16:40:03.970Z,26.70
2018-08-28T16:42:33.353Z,26.60
2018-08-28T16:45:02.908Z,26.60
2018-08-28T16:47:32.307Z,26.50
2018-08-28T16:50:01.643Z,26.50
2018-08-28T16:52:31.291Z,26.40
2018-08-28T16:55:01.631Z,26.40
2018-08-28T16:57:31.847Z,26.30
2018-08-28T17:00:01.771Z,26.20
2018-08-28T17:02:31.064Z,26.10
2018-08-28T17:05:00.371Z,26.10
2018-08-28T17:07:29.818Z,26.00
2018-08-28T17:09:59.082Z,25.90
2018-08-28T17:12:28.725Z,25.90
2018-08-28T17:14:58.506Z,25.80
2018-08-28T17:17:27.792Z,25.70
2018-08-28T17:19:57.011Z,25.70
2018-08-28T17:22:26.383Z,25.60
2018-08-28T17:24:55.618Z,25.60
2018-08-28T17:27:24.892Z,25.40
2018-08-28T17:29:54.111Z,25.40
2018-08-28T17:32:23.483Z,25.30
2018-08-28T17:34:52.901Z,25.20
2018-08-28T17:37:22.284Z,25.10
2018-08-28T17:39:51.449Z,25.10
2018-08-28T17:42:20.675Z,24.90
2018-08-28T17:44:49.900Z,24.90
2018-08-28T17:47:19.116Z,24.80
2018-08-28T17:49:48.301Z,24.70
2018-08-28T17:52:17.547Z,24.60
2018-08-28T17:54:46.827Z,24.60
2018-08-28T17:57:16.066Z,24.50
2018-08-28T17:59:45.287Z,24.40
2018-08-28T18:02:14.549Z,24.40
2018-08-28T18:04:43.790Z,24.40
2018-08-28T18:07:13.441Z,24.30
2018-08-28T18:09:42.618Z,24.20
2018-08-28T18:12:11.773Z,24.10
2018-08-28T18:14:40.927Z,24.10
2018-08-28T18:17:10.039Z,24.00
2018-08-28T18:19:39.289Z,24.00
2018-08-28T18:22:08.442Z,23.90
2018-08-28T18:24:37.694Z,23.80
2018-08-28T18:27:07.077Z,23.80
2018-08-28T18:29:36.271Z,23.70
2018-08-28T18:32:05.609Z,23.70
2018-08-28T18:34:34.956Z,23.70
2018-08-28T18:37:04.168Z,23.60
2018-08-28T18:39:33.461Z,23.50
2018-08-28T18:42:02.899Z,23.40
2018-08-28T18:44:32.118Z,23.40
2018-08-28T18:47:01.535Z,23.40
2018-08-28T18:49:30.672Z,23.30
2018-08-28T18:52:00.094Z,23.30
2018-08-28T18:54:29.302Z,23.20
2018-08-28T18:56:58.339Z,23.10
2018-08-28T18:59:27.642Z,23.10
2018-08-28T19:01:56.909Z,23.00
2018-08-28T19:04:27.106Z,23.00
2018-08-28T19:06:56.453Z,22.90
2018-08-28T19:09:25.697Z,22.80
2018-08-28T19:11:54.994Z,22.80
2018-08-28T19:14:24.165Z,22.60
2018-08-28T19:16:53.782Z,22.60
2018-08-28T19:19:23.003Z,22.50
2018-08-28T19:21:52.259Z,22.40
2018-08-28T19:24:21.517Z,22.30
2018-08-28T19:26:50.737Z,22.30
2018-08-28T19:29:19.861Z,22.20
2018-08-28T19:31:49.120Z,22.20
2018-08-28T19:34:18.469Z,22.20
2018-08-28T19:36:47.521Z,22.20
2018-08-28T19:39:17.633Z,22.20
2018-08-28T19:41:46.821Z,22.20
2018-08-28T19:44:16.105Z,22.30
2018-08-28T19:46:45.098Z,22.30
2018-08-28T19:49:14.269Z,22.30
2018-08-28T19:51:43.362Z,22.40
2018-08-28T19:54:12.442Z,22.40
2018-08-28T19:56:41.702Z,22.40
2018-08-28T19:59:10.976Z,22.40
2018-08-28T20:01:40.043Z,22.40
2018-08-28T20:04:09.392Z,22.40
2018-08-28T20:06:38.601Z,22.40
2018-08-28T20:09:07.869Z,22.40
2018-08-28T20:11:37.613Z,22.40
2018-08-28T20:14:06.986Z,22.30
2018-08-28T20:16:36.240Z,22.20
2018-08-28T20:19:05.777Z,22.10
2018-08-28T20:21:35.086Z,22.10
2018-08-28T20:24:04.316Z,22.10
2018-08-28T20:26:33.539Z,22.00
2018-08-28T20:29:02.759Z,21.80
2018-08-28T20:31:31.918Z,21.70
2018-08-28T20:34:01.094Z,21.70
2018-08-28T20:36:30.279Z,21.50
2018-08-28T20:38:59.458Z,21.50
2018-08-28T20:41:28.534Z,21.40
2018-08-28T20:43:57.574Z,21.30
2018-08-28T20:46:26.831Z,21.30
2018-08-28T20:48:56.046Z,21.30
2018-08-28T20:51:25.193Z,21.20
2018-08-28T20:53:54.390Z,21.20
2018-08-28T20:56:23.511Z,21.20
2018-08-28T20:58:52.654Z,21.20
2018-08-28T21:01:21.922Z,21.20
2018-08-28T21:03:51.182Z,21.20
2018-08-28T21:06:20.475Z,21.20
2018-08-28T21:08:49.782Z,21.20
2018-08-28T21:11:19.082Z,21.20
2018-08-28T21:13:48.365Z,21.20
2018-08-28T21:16:17.543Z,21.10
2018-08-28T21:18:46.686Z,21.10
2018-08-28T21:21:16.179Z,20.90
2018-08-28T21:23:45.950Z,20.80
2018-08-28T21:26:15.157Z,20.80
2018-08-28T21:28:44.386Z,20.70
2018-08-28T21:31:13.736Z,20.60
2018-08-28T21:33:42.890Z,20.60
2018-08-28T21:36:12.149Z,20.60
2018-08-28T21:38:41.350Z,20.50
2018-08-28T21:41:10.739Z,20.50
2018-08-28T21:43:39.985Z,20.40
2018-08-28T21:46:09.160Z,20.50
2018-08-28T21:48:38.418Z,20.40
2018-08-28T21:51:07.654Z,20.40
2018-08-28T21:53:37.347Z,20.30
2018-08-28T21:56:06.598Z,20.30
2018-08-28T21:58:35.849Z,20.30
2018-08-28T22:01:12.041Z,20.30
2018-08-28T22:03:42.326Z,20.30
2018-08-28T22:06:16.568Z,20.30
2018-08-28T22:08:45.895Z,20.30
2018-08-28T22:11:15.054Z,20.30
2018-08-28T22:13:44.320Z,20.30
2018-08-28T22:16:13.469Z,20.30
2018-08-28T22:18:42.643Z,20.30
2018-08-28T22:21:12.057Z,20.30
2018-08-28T22:23:41.362Z,20.30
2018-08-28T22:26:10.484Z,20.30
2018-08-28T22:28:39.751Z,20.30
2018-08-28T22:31:08.961Z,20.30
2018-08-28T22:33:38.146Z,20.30
2018-08-28T22:36:07.460Z,20.30
2018-08-28T22:38:36.725Z,20.30
2018-08-28T22:41:06.038Z,20.30
2018-08-28T22:43:35.248Z,20.20
2018-08-28T22:46:04.471Z,20.30
2018-08-28T22:48:34.013Z,20.30
2018-08-28T22:51:03.225Z,20.30
2018-08-28T22:53:32.625Z,20.20
2018-08-28T22:56:01.879Z,20.20
2018-08-28T22:58:30.949Z,20.20
2018-08-28T23:01:00.260Z,20.10
2018-08-28T23:03:29.454Z,20.00
2018-08-28T23:05:58.449Z,20.00
2018-08-28T23:08:27.729Z,20.00
2018-08-28T23:10:56.935Z,19.90
2018-08-28T23:13:25.963Z,19.80
2018-08-28T23:15:55.228Z,19.80
2018-08-28T23:18:24.441Z,19.80
2018-08-28T23:20:53.653Z,19.70
2018-08-28T23:23:22.770Z,19.70
2018-08-28T23:25:51.887Z,19.70
2018-08-28T23:28:21.107Z,19.70
2018-08-28T23:30:50.424Z,19.60
2018-08-28T23:33:19.849Z,19.60
2018-08-28T23:35:49.090Z,19.60
2018-08-28T23:38:18.413Z,19.60
2018-08-28T23:40:47.677Z,19.60
2018-08-28T23:43:16.928Z,19.60
2018-08-28T23:45:46.065Z,19.50
2018-08-28T23:48:15.137Z,19.50
2018-08-28T23:50:44.333Z,19.50
2018-08-28T23:53:13.692Z,19.40
2018-08-28T23:55:42.798Z,19.40
2018-08-28T23:58:11.970Z,19.40
